createdAt,value
2022-10-28T00:01:37.257Z,12.01
2022-10-28T00:06:33.530Z,11.56
2022-10-28T00:11:28.528Z,11.82
2022-10-28T00:16:25.288Z,12.82
2022-10-28T00:21:21.275Z,12.66
2022-10-28T00:26:16.985Z,12.76
2022-10-28T00:31:12.610Z,12.63
2022-10-28T00:36:12.478Z,13.70
2022-10-28T00:41:06.365Z,13.06
2022-10-28T00:45:59.788Z,13.69
2022-10-28T00:50:53.172Z,13.13
2022-10-28T00:55:50.077Z,12.77
2022-10-28T01:00:46.697Z,12.36
2022-10-28T01:05:42.936Z,12.31
2022-10-28T01:11:01.258Z,11.96
2022-10-28T01:16:02.477Z,11.93
2022-10-28T01:21:30.711Z,12.39
2022-10-28T01:26:57.725Z,12.08
2022-10-28T01:31:56.291Z,11.63
2022-10-28T01:36:58.857Z,11.53
2022-10-28T01:41:57.729Z,10.85
2022-10-28T01:47:00.160Z,11.20
2022-10-28T01:51:57.140Z,10.61
2022-10-28T01:56:51.644Z,10.80
2022-10-28T02:01:45.102Z,10.91
2022-10-28T02:06:42.377Z,10.91
2022-10-28T02:11:52.589Z,10.95
2022-10-28T02:16:51.476Z,10.84
2022-10-28T02:21:56.666Z,9.79
2022-10-28T02:26:56.214Z,10.86
2022-10-28T02:31:53.240Z,10.58
2022-10-28T02:36:53.598Z,10.64
2022-10-28T02:41:51.923Z,10.16
2022-10-28T02:46:50.940Z,10.46
2022-10-28T02:51:47.385Z,10.53
2022-10-28T02:56:48.648Z,10.50
2022-10-28T03:01:42.045Z,10.14
2022-10-28T03:06:35.558Z,9.44
2022-10-28T03:11:28.893Z,10.46
2022-10-28T03:16:23.388Z,10.28
2022-10-28T03:21:16.554Z,10.12
2022-10-28T03:26:17.262Z,9.93
2022-10-28T03:31:11.341Z,10.03
2022-10-28T03:36:06.327Z,10.06
2022-10-28T03:40:59.569Z,9.66
2022-10-28T03:45:52.682Z,9.36
2022-10-28T03:50:45.777Z,9.86
2022-10-28T03:55:40.461Z,9.54
2022-10-28T04:00:33.627Z,9.00
2022-10-28T04:05:28.988Z,9.26
2022-10-28T04:10:22.248Z,9.02
2022-10-28T04:15:17.129Z,9.53
2022-10-28T04:20:11.217Z,9.59
2022-10-28T04:25:04.763Z,9.57
2022-10-28T04:29:57.998Z,9.43
2022-10-28T04:34:52.685Z,9.24
2022-10-28T04:39:45.844Z,9.46
2022-10-28T04:44:59.354Z,8.86
2022-10-28T04:49:54.227Z,9.48
2022-10-28T04:54:47.398Z,9.35
2022-10-28T04:59:42.650Z,9.23
2022-10-28T05:04:35.780Z,9.39
2022-10-28T05:09:31.732Z,9.61
2022-10-28T05:14:25.041Z,9.13
2022-10-28T05:19:18.211Z,9.38
2022-10-28T05:24:11.591Z,9.18
2022-10-28T05:29:06.451Z,9.76
2022-10-28T05:33:59.697Z,9.14
2022-10-28T05:38:52.919Z,9.87
2022-10-28T05:43:46.300Z,9.26
2022-10-28T05:48:40.870Z,9.23
2022-10-28T05:53:34.195Z,9.95
2022-10-28T05:58:27.374Z,9.70
2022-10-28T06:03:20.529Z,10.18
2022-10-28T06:08:15.437Z,10.24
2022-10-28T06:13:08.542Z,10.12
2022-10-28T06:18:01.997Z,10.43
2022-10-28T06:22:56.452Z,9.50
2022-10-28T06:27:54.634Z,10.74
2022-10-28T06:32:48.138Z,10.84
2022-10-28T06:37:41.420Z,9.81
2022-10-28T06:42:34.681Z,10.91
2022-10-28T06:47:31.816Z,10.82
2022-10-28T06:52:27.807Z,10.90
2022-10-28T06:57:22.757Z,11.51
2022-10-28T07:02:17.824Z,11.07
2022-10-28T07:07:12.588Z,12.11
2022-10-28T07:12:06.236Z,12.31
2022-10-28T07:16:59.416Z,12.60
2022-10-28T07:21:52.649Z,12.91
2022-10-28T07:26:50.293Z,13.20
2022-10-28T07:31:45.505Z,13.31
2022-10-28T07:36:39.060Z,13.38
2022-10-28T07:41:32.297Z,13.92
2022-10-28T07:46:27.015Z,14.35
2022-10-28T07:51:20.417Z,14.63
2022-10-28T07:56:14.832Z,14.77
2022-10-28T08:01:10.665Z,14.89
2022-10-28T08:06:07.971Z,15.28
2022-10-28T08:11:01.259Z,14.97
2022-10-28T08:15:55.131Z,15.91
2022-10-28T08:20:48.619Z,16.12
2022-10-28T08:25:50.736Z,15.42
2022-10-28T08:30:57.223Z,16.18
2022-10-28T08:35:59.284Z,16.08
2022-10-28T08:41:02.364Z,16.82
2022-10-28T08:46:02.863Z,17.03
2022-10-28T08:51:05.006Z,17.37
2022-10-28T08:56:08.540Z,18.38
2022-10-28T09:01:02.350Z,19.35
2022-10-28T09:06:01.513Z,19.45
2022-10-28T09:11:22.240Z,19.30
2022-10-28T09:16:26.891Z,20.94
2022-10-28T09:21:27.508Z,20.92
2022-10-28T09:26:30.324Z,20.15
2022-10-28T09:31:32.075Z,21.01
2022-10-28T09:36:31.501Z,21.14
2022-10-28T09:41:32.883Z,21.02
2022-10-28T09:46:34.723Z,20.26
2022-10-28T09:51:35.643Z,20.71
2022-10-28T09:56:31.745Z,20.83
2022-10-28T10:01:25.181Z,20.82
2022-10-28T10:06:20.718Z,21.05
2022-10-28T10:11:23.290Z,20.97
2022-10-28T10:16:27.912Z,20.82
2022-10-28T10:21:42.240Z,20.95
2022-10-28T10:26:36.609Z,19.95
2022-10-28T10:31:31.329Z,20.94
2022-10-28T10:36:28.880Z,20.84
2022-10-28T10:41:39.914Z,21.02
2022-10-28T10:46:34.749Z,21.02
2022-10-28T10:51:30.177Z,20.60
2022-10-28T10:56:27.536Z,21.37
2022-10-28T11:01:23.210Z,21.63
2022-10-28T11:06:24.943Z,21.29
2022-10-28T11:11:22.708Z,21.62
2022-10-28T11:16:25.137Z,21.63
2022-10-28T11:21:49.673Z,21.57
2022-10-28T11:26:53.550Z,21.48
2022-10-28T11:32:25.413Z,20.90
2022-10-28T11:37:32.096Z,21.41
2022-10-28T11:42:36.133Z,20.91
2022-10-28T11:47:43.488Z,21.42
2022-10-28T11:52:56.349Z,21.45
2022-10-28T11:58:03.816Z,21.50
2022-10-28T12:03:13.790Z,21.29
2022-10-28T12:08:16.646Z,21.48
2022-10-28T12:13:21.514Z,21.36
2022-10-28T12:18:21.609Z,21.42
2022-10-28T12:23:19.744Z,21.52
2022-10-28T12:28:20.993Z,21.53
2022-10-28T12:33:18.702Z,21.50
2022-10-28T12:38:18.256Z,21.60
2022-10-28T12:43:17.017Z,21.37
2022-10-28T12:48:18.265Z,21.62
2022-10-28T12:53:35.678Z,21.64
2022-10-28T12:58:34.336Z,21.75
2022-10-28T13:03:27.379Z,21.74
2022-10-28T13:09:20.303Z,21.77
2022-10-28T13:14:35.331Z,21.61
2022-10-28T13:19:45.704Z,21.58
2022-10-28T13:24:48.735Z,21.28
2022-10-28T13:29:44.074Z,21.32
2022-10-28T13:34:40.279Z,21.22
2022-10-28T13:39:46.251Z,21.27
2022-10-28T13:44:49.647Z,21.32
2022-10-28T13:50:10.977Z,21.13
2022-10-28T13:55:23.518Z,21.14
2022-10-28T14:00:37.646Z,20.75
2022-10-28T14:05:52.951Z,20.75
2022-10-28T14:11:01.520Z,20.69
2022-10-28T14:16:15.780Z,20.72
2022-10-28T14:21:09.099Z,20.62
2022-10-28T14:26:07.222Z,19.66
2022-10-28T14:31:24.659Z,20.49
2022-10-28T14:36:31.371Z,20.37
2022-10-28T14:41:44.138Z,19.92
2022-10-28T14:46:52.853Z,19.99
2022-10-28T14:51:46.791Z,19.99
2022-10-28T14:56:42.493Z,19.68
2022-10-28T15:01:56.753Z,19.43
2022-10-28T15:06:52.206Z,19.54
2022-10-28T15:11:49.891Z,19.40
2022-10-28T15:16:50.175Z,19.06
2022-10-28T15:21:43.754Z,19.16
2022-10-28T15:26:43.457Z,19.04
2022-10-28T15:32:08.902Z,18.86
2022-10-28T15:37:33.498Z,18.59
2022-10-28T15:43:14.644Z,18.38
2022-10-28T15:48:25.022Z,17.56
2022-10-28T15:53:46.765Z,17.45
2022-10-28T15:58:43.613Z,17.97
2022-10-28T16:03:47.806Z,17.38
2022-10-28T16:08:51.563Z,17.20
2022-10-28T16:13:49.500Z,17.44
2022-10-28T16:19:10.584Z,16.56
2022-10-28T16:24:07.612Z,16.46
2022-10-28T16:29:01.216Z,16.36
2022-10-28T16:33:59.608Z,16.13
2022-10-28T16:38:53.178Z,16.19
2022-10-28T16:43:50.506Z,16.25
2022-10-28T16:48:44.327Z,16.51
2022-10-28T16:53:47.497Z,16.04
2022-10-28T16:58:44.611Z,15.44
2022-10-28T17:04:05.416Z,15.03
2022-10-28T17:09:03.212Z,15.07
2022-10-28T17:13:59.956Z,14.74
2022-10-28T17:18:54.068Z,14.56
2022-10-28T17:23:51.130Z,15.45
2022-10-28T17:28:46.681Z,14.49
2022-10-28T17:33:40.268Z,14.35
2022-10-28T17:38:33.869Z,14.89
2022-10-28T17:44:30.917Z,15.28
2022-10-28T17:49:25.768Z,14.98
2022-10-28T17:54:19.451Z,14.24
2022-10-28T17:59:15.576Z,14.95
2022-10-28T18:04:28.302Z,13.61
2022-10-28T18:09:23.769Z,13.87
2022-10-28T18:14:25.251Z,13.48
2022-10-28T18:19:35.450Z,13.71
2022-10-28T18:24:34.629Z,13.67
2022-10-28T18:29:31.317Z,13.09
2022-10-28T18:40:35.135Z,13.54
2022-10-28T18:46:09.264Z,12.67
2022-10-28T18:51:21.255Z,12.54
2022-10-28T18:56:30.880Z,12.56
2022-10-28T19:01:31.320Z,12.67
2022-10-28T19:06:28.354Z,12.77
2022-10-28T19:11:22.466Z,13.35
2022-10-28T19:16:24.969Z,11.88
2022-10-28T19:21:21.469Z,12.19
2022-10-28T19:27:20.475Z,11.71
2022-10-28T19:32:44.051Z,12.62
2022-10-28T19:37:43.189Z,11.73
2022-10-28T19:42:46.010Z,12.43
2022-10-28T19:47:44.475Z,11.68
2022-10-28T19:52:41.321Z,11.51
2022-10-28T19:57:34.770Z,11.83
2022-10-28T20:02:45.264Z,11.43
2022-10-28T20:07:43.307Z,11.25
2022-10-28T20:12:36.866Z,12.78
2022-10-28T20:17:31.025Z,11.57
2022-10-28T20:22:36.558Z,11.49
2022-10-28T20:27:37.215Z,11.56
2022-10-28T20:32:30.860Z,12.21
2022-10-28T20:37:29.060Z,11.71
2022-10-28T20:42:22.744Z,11.21
2022-10-28T20:47:17.973Z,11.66
2022-10-28T20:52:16.787Z,10.99
2022-10-28T20:57:10.158Z,11.46
2022-10-28T21:02:04.660Z,10.86
2022-10-28T21:06:59.530Z,11.68
2022-10-28T21:11:55.812Z,11.82
2022-10-28T21:16:51.682Z,11.85
2022-10-28T21:21:45.171Z,10.65
2022-10-28T21:26:41.100Z,11.72
2022-10-28T21:31:37.597Z,10.75
2022-10-28T21:36:36.095Z,10.75
2022-10-28T21:41:29.449Z,10.15
2022-10-28T21:46:24.872Z,11.37
2022-10-28T21:51:19.055Z,11.04
2022-10-28T21:56:17.489Z,10.35
2022-10-28T22:01:17.014Z,10.27
2022-10-28T22:06:12.607Z,10.48
2022-10-28T22:11:08.352Z,10.40
2022-10-28T22:16:03.916Z,10.88
2022-10-28T22:20:59.920Z,9.78
2022-10-28T22:25:58.520Z,9.62
2022-10-28T22:30:51.866Z,10.29
2022-10-28T22:35:45.239Z,10.54
2022-10-28T22:40:38.492Z,10.18
2022-10-28T22:45:33.470Z,10.87
2022-10-28T22:50:27.033Z,9.51
2022-10-28T22:55:23.320Z,10.51
2022-10-28T23:05:12.105Z,9.74
2022-10-28T23:10:08.129Z,10.96
2022-10-28T23:15:01.543Z,10.99
2022-10-28T23:19:54.728Z,10.06
2022-10-28T23:24:49.534Z,10.86
2022-10-28T23:29:42.926Z,11.00
2022-10-28T23:34:38.476Z,10.40
2022-10-28T23:39:48.428Z,11.03
2022-10-28T23:44:46.442Z,11.14
2022-10-28T23:49:39.930Z,10.53
2022-10-28T23:54:33.337Z,11.10
2022-10-28T23:59:26.733Z,10.20
